Time;durP1;ratioP1;P1;durP2;ratioP2;P2;SDS_P1;SDS_P2;PMS_P1;PMS_P2;Temp;Humidity;BMP_temperature;BMP_pressure;BME280_temperature;BME280_humidity;BME280_pressure;Samples;Min_cycle;Max_cycle;Signal;HPM_P1;HPM_P2
2023/06/14 00:02:26;;;;;;;5.15;4.03;;;;;;;21.92;67.43;100246.94;4953770;28;20485;-80
2023/06/14 00:04:54;;;;;;;3.92;3.55;;;;;;;21.78;67.06;100262.19;4954578;28;20043;-81
2023/06/14 00:07:34;;;;;;;6.30;4.22;;;;;;;21.71;66.93;100250.91;4954836;28;20058;-80
2023/06/14 00:10:05;;;;;;;8.30;5.07;;;;;;;21.67;67.38;100242.44;4955036;29;20058;-80
2023/06/14 00:12:33;;;;;;;5.78;4.53;;;;;;;21.77;67.77;100241.09;4954005;29;20039;-80
2023/06/14 00:15:03;;;;;;;4.47;3.90;;;;;;;21.80;67.66;100242.34;4936866;29;20039;-80
2023/06/14 00:17:31;;;;;;;5.03;4.35;;;;;;;21.69;67.68;100251.22;4953048;29;20074;-80
2023/06/14 00:19:59;;;;;;;4.78;3.92;;;;;;;21.60;67.64;100248.66;4953751;28;20040;-80
2023/06/14 00:22:28;;;;;;;4.70;4.10;;;;;;;21.68;68.79;100249.63;4951336;29;20379;-80
2023/06/14 00:24:56;;;;;;;5.63;4.65;;;;;;;21.70;68.10;100250.09;4953472;29;20054;-80
2023/06/14 00:27:24;;;;;;;5.20;4.70;;;;;;;21.60;70.73;100243.09;4957053;28;20397;-80
2023/06/14 00:29:52;;;;;;;5.53;4.75;;;;;;;21.59;69.58;100233.13;4957342;28;20040;-80
2023/06/14 00:32:25;;;;;;;5.15;4.28;;;;;;;21.54;69.46;100240.94;4940134;29;20517;-80
2023/06/14 00:34:56;;;;;;;5.32;4.38;;;;;;;21.53;70.80;100245.72;4957278;29;20367;-80
2023/06/14 00:37:24;;;;;;;8.45;4.70;;;;;;;21.52;69.52;100241.31;4940213;29;20047;-80
2023/06/14 00:39:52;;;;;;;6.57;4.53;;;;;;;21.46;70.55;100251.13;4957206;28;20074;-80
2023/06/14 00:42:26;;;;;;;5.38;4.68;;;;;;;21.46;69.95;100243.56;4923846;29;20478;-79
2023/06/14 00:44:55;;;;;;;6.35;4.55;;;;;;;21.42;71.63;100242.69;4957171;29;20398;-80
2023/06/14 00:47:23;;;;;;;5.65;4.68;;;;;;;21.37;70.90;100242.16;4939931;29;20047;-80
2023/06/14 00:49:53;;;;;;;6.22;5.00;;;;;;;21.36;71.90;100235.78;4939301;29;20054;-80
2023/06/14 00:52:27;;;;;;;7.68;4.90;;;;;;;21.25;73.55;100235.53;4956960;28;20055;-80
2023/06/14 00:54:55;;;;;;;8.30;5.40;;;;;;;21.32;72.93;100237.69;4939887;29;20039;-80
2023/06/14 00:57:23;;;;;;;9.93;5.32;;;;;;;21.23;72.83;100239.84;4937764;29;20047;-80
2023/06/14 00:59:51;;;;;;;5.60;4.80;;;;;;;21.12;72.54;100242.38;4937687;29;20040;-80
2023/06/14 01:02:19;;;;;;;6.20;4.63;;;;;;;21.05;73.14;100231.88;4942144;28;20047;-81
2023/06/14 01:04:49;;;;;;;8.48;4.95;;;;;;;21.17;73.42;100240.13;4976059;28;20042;-80
2023/06/14 01:07:31;;;;;;;6.55;5.00;;;;;;;21.18;73.52;100249.28;4976062;28;20412;-80
2023/06/14 01:10:26;;;;;;;6.85;5.07;;;;;;;21.19;73.47;100235.00;4975920;28;20054;-81
2023/06/14 01:13:15;;;;;;;5.40;4.88;;;;;;;21.04;73.67;100222.75;4953989;29;20058;-80
2023/06/14 01:15:44;;;;;;;5.63;4.78;;;;;;;21.04;73.79;100233.03;4939334;29;20047;-80
2023/06/14 01:18:17;;;;;;;5.70;4.60;;;;;;;21.06;74.15;100227.91;4955020;29;20051;-80
2023/06/14 01:20:50;;;;;;;7.53;5.15;;;;;;;21.06;73.69;100231.53;4956295;29;20047;-80
2023/06/14 01:23:20;;;;;;;6.20;4.55;;;;;;;21.07;72.42;100221.22;4938863;29;20462;-80
2023/06/14 01:25:52;;;;;;;5.70;5.00;;;;;;;21.03;73.67;100221.13;4938411;29;20051;-81
2023/06/14 01:28:21;;;;;;;5.88;4.97;;;;;;;21.14;72.23;100218.59;4971259;28;20083;-80
2023/06/14 01:30:53;;;;;;;10.80;5.65;;;;;;;21.04;73.02;100221.91;4956045;28;20437;-80
2023/06/14 01:33:23;;;;;;;7.15;5.43;;;;;;;21.10;72.46;100220.47;4939112;29;20055;-80
2023/06/14 01:35:53;;;;;;;7.45;5.57;;;;;;;21.05;75.32;100213.22;4955466;29;20063;-80
2023/06/14 01:38:26;;;;;;;7.20;5.65;;;;;;;21.05;74.04;100224.34;4938437;29;20055;-80
2023/06/14 01:40:58;;;;;;;8.27;6.18;;;;;;;20.98;73.60;100217.81;4938724;29;20050;-81
2023/06/14 01:43:27;;;;;;;6.72;6.00;;;;;;;20.88;74.95;100222.72;4955696;29;20406;-80
2023/06/14 01:45:56;;;;;;;6.85;5.55;;;;;;;20.91;74.27;100219.25;4955908;28;20070;-80
2023/06/14 01:48:25;;;;;;;8.73;6.60;;;;;;;21.08;74.53;100222.81;4938350;29;20425;-81
2023/06/14 01:50:53;;;;;;;7.88;6.50;;;;;;;20.99;75.61;100222.19;4955456;28;20478;-80
2023/06/14 01:53:21;;;;;;;8.55;6.32;;;;;;;20.85;75.58;100211.53;4937848;29;20051;-80
2023/06/14 01:55:49;;;;;;;8.30;6.13;;;;;;;20.99;75.46;100224.97;4955752;28;20051;-80
2023/06/14 01:58:17;;;;;;;8.48;6.88;;;;;;;20.96;76.72;100220.13;4938635;29;20054;-81
2023/06/14 02:00:47;;;;;;;8.80;6.50;;;;;;;20.87;77.04;100214.75;4938261;29;20043;-80
2023/06/14 02:03:15;;;;;;;9.02;6.82;;;;;;;20.80;77.24;100212.56;4938387;29;20054;-80
2023/06/14 02:05:43;;;;;;;9.80;7.40;;;;;;;20.74;78.08;100220.38;4955586;28;20043;-80
2023/06/14 02:08:11;;;;;;;13.93;8.05;;;;;;;20.55;79.16;100215.53;4955551;28;20059;-80
2023/06/14 02:10:39;;;;;;;12.35;8.45;;;;;;;20.64;79.33;100216.16;4955322;28;20054;-81
2023/06/14 02:13:07;;;;;;;11.57;8.38;;;;;;;20.37;80.53;100203.94;4938324;29;20047;-80
2023/06/14 02:15:35;;;;;;;12.68;9.15;;;;;;;20.47;79.92;100203.41;4938396;29;20410;-80
2023/06/14 02:18:04;;;;;;;11.07;8.63;;;;;;;20.53;80.62;100212.31;4955010;28;20054;-81
2023/06/14 02:20:34;;;;;;;11.00;8.80;;;;;;;20.66;79.87;100211.06;4953673;28;20051;-80
2023/06/14 02:23:02;;;;;;;12.70;9.35;;;;;;;20.66;81.09;100211.06;4937805;29;20058;-81
2023/06/14 02:25:31;;;;;;;11.82;9.00;;;;;;;20.68;79.99;100210.69;4955215;28;20051;-80
2023/06/14 02:27:59;;;;;;;10.75;7.38;;;;;;;20.70;80.22;100221.44;4937993;29;20047;-80
2023/06/14 02:30:27;;;;;;;9.40;8.05;;;;;;;20.67;80.67;100215.44;4937657;29;20066;-80
2023/06/14 02:32:56;;;;;;;10.00;7.60;;;;;;;20.66;80.80;100219.41;4955086;28;20054;-80
2023/06/14 02:35:26;;;;;;;9.02;7.72;;;;;;;20.64;81.42;100227.25;4955079;28;20047;-80
2023/06/14 02:37:56;;;;;;;11.40;7.85;;;;;;;20.66;81.36;100224.13;4955101;29;20047;-80
2023/06/14 02:40:24;;;;;;;8.90;7.18;;;;;;;20.70;81.64;100225.03;4937666;29;20039;-81
2023/06/14 02:42:52;;;;;;;8.13;7.22;;;;;;;20.44;83.43;100218.03;4954762;29;20504;-80
2023/06/14 02:45:20;;;;;;;10.02;7.70;;;;;;;20.22;85.57;100206.34;4937552;29;20054;-80
2023/06/14 02:47:48;;;;;;;9.75;6.22;;;;;;;20.12;86.77;100199.31;4936812;29;20592;-80
2023/06/14 02:50:17;;;;;;;8.80;7.30;;;;;;;20.14;88.58;100210.88;4936517;29;20054;-80
2023/06/14 02:52:45;;;;;;;7.22;5.95;;;;;;;20.06;89.27;100195.19;4954574;28;20047;-80
2023/06/14 02:55:13;;;;;;;9.88;6.40;;;;;;;19.93;91.45;100210.25;4937581;29;20374;-80
2023/06/14 02:57:41;;;;;;;7.32;6.45;;;;;;;19.93;91.30;100201.91;4921941;29;20224;-81
2023/06/14 03:00:12;;;;;;;8.07;5.93;;;;;;;19.85;91.47;100187.81;4954423;28;20066;-80
2023/06/14 03:02:44;;;;;;;9.48;6.55;;;;;;;19.96;90.60;100187.38;4937299;29;20070;-81
2023/06/14 03:05:14;;;;;;;8.60;5.75;;;;;;;20.02;89.95;100197.06;4954446;28;20521;-80
2023/06/14 03:07:44;;;;;;;9.05;6.03;;;;;;;19.93;90.16;100193.56;4937310;29;20058;-81
2023/06/14 03:10:14;;;;;;;7.53;6.25;;;;;;;19.98;89.94;100196.97;4954320;29;20513;-80
2023/06/14 03:12:44;;;;;;;7.90;6.63;;;;;;;19.98;89.50;100193.34;4954319;29;20047;-81
2023/06/14 03:15:13;;;;;;;10.38;6.68;;;;;;;20.10;88.46;100187.75;4921125;29;20055;-81
2023/06/14 03:17:45;;;;;;;10.00;6.63;;;;;;;20.09;89.36;100191.69;4950414;28;20486;-80
2023/06/14 03:20:17;;;;;;;7.95;5.93;;;;;;;20.21;88.57;100195.56;4953017;29;20409;-80
2023/06/14 03:22:47;;;;;;;6.60;5.88;;;;;;;20.36;88.19;100193.97;4952965;29;20047;-80
2023/06/14 03:25:16;;;;;;;7.88;5.75;;;;;;;20.23;88.76;100191.28;4952997;28;20062;-81
2023/06/14 03:27:46;;;;;;;8.15;6.10;;;;;;;20.16;89.82;100204.16;4953053;29;20039;-80
2023/06/14 03:30:14;;;;;;;6.07;5.35;;;;;;;20.13;90.24;100186.22;4952931;28;20039;-81
2023/06/14 03:32:45;;;;;;;9.90;5.68;;;;;;;20.16;90.20;100184.72;4951745;29;20051;-80
2023/06/14 03:35:17;;;;;;;11.77;6.15;;;;;;;20.02;90.93;100174.84;4949629;29;20043;-80
2023/06/14 03:37:48;;;;;;;11.95;5.63;;;;;;;19.94;90.95;100178.56;4933029;29;20058;-81
2023/06/14 03:40:19;;;;;;;5.95;5.38;;;;;;;19.89;90.24;100185.16;4949158;29;20046;-81
2023/06/14 03:42:51;;;;;;;6.63;5.38;;;;;;;19.89;91.02;100176.81;4932369;29;20043;-80
2023/06/14 03:45:20;;;;;;;5.82;5.05;;;;;;;19.84;90.86;100190.97;4965298;28;20043;-81
2023/06/14 03:47:48;;;;;;;6.55;5.45;;;;;;;19.94;91.24;100184.13;4952747;29;20044;-81
2023/06/14 03:50:18;;;;;;;9.57;6.70;;;;;;;19.86;92.54;100188.66;4952586;29;20062;-80
2023/06/14 03:52:50;;;;;;;6.65;5.68;;;;;;;19.84;91.97;100189.00;4952271;29;20043;-80
2023/06/14 03:55:20;;;;;;;8.23;5.22;;;;;;;19.77;92.03;100196.31;4952732;29;20487;-80
2023/06/14 03:57:52;;;;;;;5.68;5.07;;;;;;;19.76;89.79;100189.16;4952725;29;20054;-81
2023/06/14 04:00:20;;;;;;;7.05;5.03;;;;;;;19.75;89.62;100182.81;4952813;28;20047;-80
2023/06/14 04:02:48;;;;;;;6.03;5.10;;;;;;;19.76;88.90;100187.19;4957145;29;20058;-80
2023/06/14 04:05:18;;;;;;;6.80;4.88;;;;;;;19.84;88.42;100202.88;4940114;29;20055;-81
2023/06/14 04:07:50;;;;;;;6.68;5.07;;;;;;;19.86;88.84;100199.75;4957801;29;20054;-81
2023/06/14 04:10:20;;;;;;;6.00;4.88;;;;;;;19.78;88.41;100201.50;4956414;28;20048;-80
2023/06/14 04:12:49;;;;;;;5.75;5.05;;;;;;;19.85;87.82;100201.72;4956006;28;20485;-80
2023/06/14 04:15:17;;;;;;;6.93;5.13;;;;;;;19.83;88.05;100212.38;4956429;28;20528;-80
2023/06/14 04:17:52;;;;;;;6.05;5.45;;;;;;;19.81;88.77;100211.94;4956123;29;20047;-80
2023/06/14 04:20:26;;;;;;;5.70;5.00;;;;;;;19.92;87.53;100215.00;4956074;29;20043;-80
2023/06/14 04:22:57;;;;;;;6.28;5.18;;;;;;;19.92;86.88;100225.28;4955912;29;20371;-79
2023/06/14 04:25:26;;;;;;;5.93;5.00;;;;;;;20.07;85.13;100221.81;4956366;29;20624;-79
2023/06/14 04:27:55;;;;;;;6.82;4.70;;;;;;;20.21;84.27;100221.41;4956270;29;20047;-79
2023/06/14 04:30:26;;;;;;;5.50;4.45;;;;;;;20.30;84.62;100220.41;4955668;29;20044;-79
2023/06/14 04:32:55;;;;;;;6.18;5.30;;;;;;;20.45;83.62;100225.22;4956032;28;20058;-79
2023/06/14 04:35:25;;;;;;;7.00;5.57;;;;;;;20.48;84.64;100229.25;4955088;28;20035;-79
2023/06/14 04:37:58;;;;;;;8.53;5.03;;;;;;;20.36;84.20;100219.81;4957097;29;20047;-78
2023/06/14 04:40:26;;;;;;;6.90;5.03;;;;;;;20.36;84.40;100228.16;4961315;28;20043;-79
2023/06/14 04:42:55;;;;;;;5.60;5.07;;;;;;;20.45;84.92;100229.94;4958443;28;20043;-78
2023/06/14 04:45:24;;;;;;;6.90;5.07;;;;;;;20.50;84.98;100233.28;4957035;29;20058;-78
2023/06/14 04:47:57;;;;;;;5.65;4.65;;;;;;;20.86;83.61;100232.63;4959689;29;20043;-85
2023/06/14 04:50:29;;;;;;;5.68;5.07;;;;;;;21.14;81.59;100238.06;4956137;29;20054;-84
2023/06/14 04:52:59;;;;;;;6.53;4.78;;;;;;;21.44;80.99;100245.09;4957183;29;20054;-84
2023/06/14 04:55:28;;;;;;;7.78;5.05;;;;;;;21.52;80.09;100237.72;4956975;29;20050;-85
2023/06/14 04:57:57;;;;;;;7.47;4.85;;;;;;;21.58;78.92;100239.03;4956506;29;20058;-84
2023/06/14 05:00:26;;;;;;;6.03;4.97;;;;;;;21.70;78.33;100236.16;4956060;28;20055;-83
2023/06/14 05:02:55;;;;;;;5.35;4.65;;;;;;;21.71;76.90;100242.53;4955948;28;20043;-86
2023/06/14 05:05:24;;;;;;;5.82;4.88;;;;;;;21.88;76.95;100244.91;4955535;29;20047;-87
2023/06/14 05:07:51;;;;;;;6.25;4.75;;;;;;;21.98;76.76;100251.88;4956121;28;20051;-86
2023/06/14 05:10:20;;;;;;;6.80;4.90;;;;;;;22.13;76.24;100235.44;4955813;28;20043;-86
2023/06/14 05:12:48;;;;;;;6.38;4.95;;;;;;;21.96;75.56;100245.06;4940927;29;20048;-85
2023/06/14 05:15:19;;;;;;;6.15;5.00;;;;;;;22.02;75.39;100257.50;4955141;29;20035;-85
2023/06/14 05:17:54;;;;;;;6.57;5.10;;;;;;;21.96;75.26;100245.06;4955190;29;20055;-84
2023/06/14 05:20:26;;;;;;;6.40;5.00;;;;;;;22.10;74.99;100253.69;4955488;28;20148;-87
2023/06/14 05:22:54;;;;;;;5.50;4.88;;;;;;;22.03;76.37;100253.53;4938310;29;20043;-87
2023/06/14 05:25:22;;;;;;;7.20;4.95;;;;;;;22.19;75.54;100249.88;4939917;29;20058;-87
2023/06/14 05:27:50;;;;;;;10.38;5.43;;;;;;;21.94;77.24;100256.56;4955547;28;20055;-87
2023/06/14 05:30:19;;;;;;;8.13;4.78;;;;;;;22.09;77.48;100265.22;4939952;29;20050;-87
2023/06/14 05:32:47;;;;;;;5.75;4.85;;;;;;;22.07;78.26;100253.63;4955433;29;20046;-87
2023/06/14 05:35:22;;;;;;;7.67;5.63;;;;;;;22.05;78.41;100254.00;4955604;29;20050;-86
2023/06/14 05:37:50;;;;;;;7.82;5.15;;;;;;;22.23;77.83;100259.91;4954867;29;20307;-85
2023/06/14 05:40:20;;;;;;;7.10;5.53;;;;;;;22.24;76.03;100261.53;4955019;29;20054;-86
2023/06/14 05:42:51;;;;;;;8.10;5.60;;;;;;;22.44;75.90;100269.06;4957847;29;20047;-86
2023/06/14 05:45:20;;;;;;;10.32;5.88;;;;;;;22.52;77.40;100266.06;4918885;29;20051;-84
2023/06/14 05:47:48;;;;;;;7.35;5.13;;;;;;;22.58;76.47;100271.34;4952926;29;20501;-85
2023/06/14 05:50:16;;;;;;;7.93;5.32;;;;;;;22.57;75.65;100273.31;4956408;28;20043;-83
2023/06/14 05:52:44;;;;;;;6.45;5.30;;;;;;;22.74;74.28;100272.06;4956208;28;20047;-83
2023/06/14 05:55:12;;;;;;;8.80;5.32;;;;;;;22.72;72.43;100277.19;4956312;28;20486;-84
2023/06/14 05:57:41;;;;;;;7.63;5.22;;;;;;;22.76;73.04;100271.66;4956227;28;20050;-84
2023/06/14 06:00:11;;;;;;;9.02;5.60;;;;;;;22.79;72.71;100276.50;4955948;28;20043;-84
2023/06/14 06:02:39;;;;;;;5.97;5.13;;;;;;;22.76;72.19;100274.44;4955369;28;20394;-84
2023/06/14 06:05:07;;;;;;;8.07;5.40;;;;;;;22.88;71.77;100273.47;4955968;28;20067;-84
2023/06/14 06:07:35;;;;;;;6.85;5.32;;;;;;;22.88;72.02;100276.25;4955332;28;20058;-84
2023/06/14 06:10:05;;;;;;;7.07;5.65;;;;;;;22.95;71.63;100273.59;4955326;29;20055;-84
2023/06/14 06:12:33;;;;;;;7.50;5.57;;;;;;;22.80;71.57;100278.13;4955407;29;20075;-85
2023/06/14 06:15:03;;;;;;;8.02;5.35;;;;;;;22.80;73.10;100286.47;4955808;29;20051;-84
2023/06/14 06:17:31;;;;;;;7.05;5.75;;;;;;;22.73;72.78;100278.78;4956151;29;20055;-85
2023/06/14 06:20:19;;;;;;;7.53;6.07;;;;;;;22.64;72.81;100283.81;4954564;29;20066;-84
2023/06/14 06:22:47;;;;;;;7.80;5.38;;;;;;;22.53;73.17;100292.00;4923413;29;20050;-84
2023/06/14 06:25:16;;;;;;;10.52;5.93;;;;;;;22.55;72.81;100290.41;4937909;29;20051;-84
2023/06/14 06:27:45;;;;;;;8.60;5.78;;;;;;;22.64;73.15;100298.53;4930955;29;20441;-85
2023/06/14 06:30:13;;;;;;;7.03;5.75;;;;;;;22.61;72.85;100292.91;4942805;28;20039;-84
2023/06/14 06:32:41;;;;;;;10.55;6.03;;;;;;;22.67;73.69;100297.00;4946763;28;20047;-84
2023/06/14 06:35:10;;;;;;;9.85;5.47;;;;;;;22.60;73.34;100294.09;4938045;28;20048;-84
2023/06/14 06:37:41;;;;;;;7.82;5.78;;;;;;;22.60;74.80;100302.44;4922498;29;20048;-84
2023/06/14 06:40:10;;;;;;;6.95;5.75;;;;;;;22.73;74.62;100294.72;4937736;29;20047;-84
2023/06/14 06:42:38;;;;;;;6.70;6.00;;;;;;;22.72;74.26;100299.50;4953358;29;20063;-84
2023/06/14 06:45:06;;;;;;;8.95;5.65;;;;;;;22.59;73.76;100298.88;4927079;29;20497;-84
2023/06/14 06:47:35;;;;;;;7.65;5.25;;;;;;;22.36;72.46;100309.94;4935716;29;20052;-84
2023/06/14 06:50:03;;;;;;;7.80;5.25;;;;;;;22.47;72.85;100313.75;4918553;29;20048;-84
2023/06/14 06:52:31;;;;;;;7.22;5.95;;;;;;;22.59;72.90;100314.78;4935412;29;20422;-84
2023/06/14 06:54:59;;;;;;;6.90;5.15;;;;;;;22.62;72.54;100314.06;4935542;29;20062;-84
2023/06/14 06:57:28;;;;;;;6.20;5.25;;;;;;;22.72;71.53;100321.81;4935379;29;20051;-84
2023/06/14 06:59:57;;;;;;;8.13;5.20;;;;;;;22.74;71.58;100321.44;4935396;29;20113;-84
2023/06/14 07:02:25;;;;;;;6.55;4.80;;;;;;;22.79;71.05;100312.78;4935235;29;20043;-84
2023/06/14 07:04:53;;;;;;;7.13;5.57;;;;;;;22.92;70.75;100307.84;4918231;29;20051;-84
2023/06/14 07:07:21;;;;;;;6.55;5.07;;;;;;;22.88;70.81;100318.13;4935528;29;20054;-86
2023/06/14 07:09:49;;;;;;;7.60;5.60;;;;;;;22.88;69.78;100306.94;4933396;29;20048;-83
2023/06/14 07:12:17;;;;;;;6.60;5.25;;;;;;;22.88;70.16;100318.91;4935030;29;20051;-83
2023/06/14 07:14:45;;;;;;;8.15;5.20;;;;;;;22.84;70.29;100308.88;4933803;29;20059;-83
2023/06/14 07:17:13;;;;;;;6.95;5.25;;;;;;;22.85;69.89;100327.22;4934811;29;20411;-83
2023/06/14 07:19:41;;;;;;;7.30;4.78;;;;;;;22.99;69.38;100316.31;4933723;29;20048;-83
2023/06/14 07:22:10;;;;;;;7.47;5.03;;;;;;;22.85;70.62;100313.25;4933641;29;20383;-83
2023/06/14 07:24:40;;;;;;;7.30;5.05;;;;;;;22.87;69.93;100325.66;4933768;29;20387;-83
2023/06/14 07:27:09;;;;;;;6.25;5.18;;;;;;;22.87;69.37;100338.81;4934907;29;20047;-83
2023/06/14 07:29:41;;;;;;;5.45;4.60;;;;;;;22.75;69.37;100329.44;4934316;29;20047;-84
2023/06/14 07:32:09;;;;;;;6.43;4.93;;;;;;;22.99;70.08;100335.84;4934975;29;20039;-84
2023/06/14 07:34:37;;;;;;;6.13;5.53;;;;;;;22.73;70.29;100331.78;4935045;29;20437;-84
2023/06/14 07:37:05;;;;;;;5.20;4.70;;;;;;;22.90;69.92;100340.84;4934336;29;20051;-84
2023/06/14 07:39:34;;;;;;;6.55;4.75;;;;;;;22.99;69.05;100341.44;4934985;29;20063;-84
2023/06/14 07:42:02;;;;;;;6.38;4.70;;;;;;;23.06;69.44;100341.56;4934762;29;20056;-84
2023/06/14 07:44:31;;;;;;;6.38;4.90;;;;;;;23.07;69.43;100331.22;4933052;29;20055;-84
2023/06/14 07:46:59;;;;;;;6.70;5.32;;;;;;;23.13;70.16;100323.31;4953886;29;20517;-84
2023/06/14 07:49:27;;;;;;;8.27;5.30;;;;;;;23.08;70.03;100330.81;4936764;29;20047;-84
2023/06/14 07:51:55;;;;;;;6.90;5.43;;;;;;;23.01;69.58;100322.31;4953887;29;20062;-84
2023/06/14 07:54:26;;;;;;;8.02;5.50;;;;;;;23.05;69.21;100330.75;4936906;29;20409;-84
2023/06/14 07:56:54;;;;;;;6.50;5.28;;;;;;;23.18;69.46;100325.81;4953965;29;20058;-84
2023/06/14 07:59:22;;;;;;;5.72;5.18;;;;;;;23.23;69.27;100331.84;4945863;28;20047;-87
2023/06/14 08:01:50;;;;;;;7.38;5.30;;;;;;;23.29;68.94;100326.78;4925887;29;20325;-83
2023/06/14 08:04:18;;;;;;;7.95;5.60;;;;;;;23.26;68.68;100319.16;4927691;29;20375;-83
2023/06/14 08:06:47;;;;;;;8.98;5.20;;;;;;;23.31;68.86;100329.25;4938068;28;20052;-84
2023/06/14 08:09:16;;;;;;;8.23;5.10;;;;;;;23.42;68.99;100337.78;4935607;28;20048;-83
2023/06/14 08:11:44;;;;;;;8.30;5.90;;;;;;;23.50;68.35;100336.69;4951805;28;20055;-83
2023/06/14 08:14:12;;;;;;;7.22;5.40;;;;;;;23.58;68.62;100340.41;4942712;28;20561;-82
2023/06/14 08:16:40;;;;;;;6.55;5.57;;;;;;;23.54;68.10;100337.56;4937210;28;20410;-83
2023/06/14 08:19:08;;;;;;;6.72;5.03;;;;;;;23.66;68.78;100344.13;4951112;28;20043;-83
2023/06/14 08:21:36;;;;;;;5.30;4.75;;;;;;;23.65;68.79;100336.94;4934226;28;20051;-83
2023/06/14 08:24:04;;;;;;;6.95;4.85;;;;;;;23.59;67.79;100345.63;4939257;28;20047;-83
2023/06/14 08:26:32;;;;;;;7.85;4.82;;;;;;;23.69;67.99;100348.94;4945060;28;20071;-83
2023/06/14 08:29:01;;;;;;;7.13;4.97;;;;;;;23.67;67.03;100346.56;4936327;28;20062;-83
2023/06/14 08:31:29;;;;;;;7.00;5.43;;;;;;;23.66;66.69;100344.13;4935417;28;20047;-88
2023/06/14 08:33:57;;;;;;;9.30;5.10;;;;;;;23.70;67.35;100350.59;4947735;28;20048;-78
2023/06/14 08:36:25;;;;;;;6.28;4.93;;;;;;;23.92;66.87;100356.47;4944108;28;20047;-83
2023/06/14 08:38:53;;;;;;;5.35;4.20;;;;;;;23.97;66.14;100351.38;4936109;28;20051;-84
2023/06/14 08:41:26;;;;;;;6.22;4.65;;;;;;;23.76;65.19;100360.25;4946872;28;20054;-84
2023/06/14 08:43:54;;;;;;;4.80;4.30;;;;;;;23.93;65.58;100360.88;4942284;28;20058;-83
2023/06/14 08:46:27;;;;;;;5.95;4.05;;;;;;;23.86;64.08;100356.00;4945831;28;20055;-84
2023/06/14 08:48:59;;;;;;;5.68;4.72;;;;;;;23.97;65.14;100362.56;4940880;28;20058;-83
2023/06/14 08:51:33;;;;;;;4.32;3.92;;;;;;;23.99;63.18;100350.97;4938389;28;20047;-82
2023/06/14 08:54:04;;;;;;;5.35;4.32;;;;;;;23.98;64.38;100364.16;4940238;28;20059;-82
2023/06/14 08:56:33;;;;;;;5.20;3.80;;;;;;;23.73;62.77;100361.00;4938364;28;20051;-83
2023/06/14 08:59:03;;;;;;;6.60;4.38;;;;;;;23.98;62.87;100368.94;4943509;28;20405;-84
2023/06/14 09:01:37;;;;;;;6.53;3.88;;;;;;;24.00;63.06;100374.97;4949928;28;20052;-83
2023/06/14 09:04:06;;;;;;;4.97;3.92;;;;;;;24.07;63.39;100375.09;4957785;28;20044;-83
2023/06/14 09:06:34;;;;;;;6.03;4.20;;;;;;;24.02;62.37;100373.41;4938098;29;20050;-83
2023/06/14 09:09:04;;;;;;;4.80;4.00;;;;;;;24.05;61.45;100373.81;4949685;28;20405;-83
2023/06/14 09:11:32;;;;;;;4.03;3.70;;;;;;;24.05;62.05;100377.41;4939116;28;20055;-84
2023/06/14 09:14:00;;;;;;;4.90;4.25;;;;;;;24.06;61.57;100389.41;4936762;28;20055;-84
2023/06/14 09:16:28;;;;;;;5.90;3.95;;;;;;;24.01;61.29;100371.78;4938204;28;20058;-84
2023/06/14 09:18:56;;;;;;;5.28;3.80;;;;;;;24.11;61.22;100372.34;4937187;28;20043;-83
2023/06/14 09:21:26;;;;;;;6.00;4.43;;;;;;;23.87;61.34;100382.75;4954692;28;20406;-80
2023/06/14 09:24:00;;;;;;;5.95;4.10;;;;;;;24.07;59.74;100366.69;4938254;28;20375;-80
2023/06/14 09:26:28;;;;;;;5.10;3.97;;;;;;;24.10;61.11;100373.53;4943617;28;20058;-80
2023/06/14 09:28:57;;;;;;;6.35;4.43;;;;;;;24.06;60.15;100387.44;4937425;28;20056;-80
2023/06/14 09:31:26;;;;;;;8.52;4.20;;;;;;;24.12;59.40;100368.34;4944762;28;20047;-80
2023/06/14 09:33:56;;;;;;;4.93;3.60;;;;;;;24.25;60.16;100374.53;4935305;28;20734;-80
2023/06/14 09:36:25;;;;;;;10.23;4.03;;;;;;;24.36;59.60;100374.66;4959975;28;20039;-80
2023/06/14 09:38:54;;;;;;;6.32;4.00;;;;;;;24.28;60.20;100385.75;4955881;28;20051;-80
2023/06/14 09:41:36;;;;;;;9.05;4.07;;;;;;;24.18;59.34;100371.66;4947142;28;20063;-80
2023/06/14 09:44:06;;;;;;;7.00;3.70;;;;;;;24.25;61.13;100374.53;4936779;28;20047;-80
2023/06/14 09:46:39;;;;;;;5.10;3.90;;;;;;;24.37;58.86;100381.84;4943898;28;20048;-80
2023/06/14 09:49:07;;;;;;;7.15;3.83;;;;;;;24.38;59.27;100375.06;4955048;29;20050;-80
2023/06/14 09:51:43;;;;;;;8.55;4.00;;;;;;;24.39;58.51;100379.50;4953388;29;20058;-80
2023/06/14 09:54:16;;;;;;;4.50;3.53;;;;;;;24.47;58.19;100385.97;4954441;29;20607;-79
2023/06/14 09:56:49;;;;;;;5.30;3.63;;;;;;;24.54;57.45;100388.88;4954454;29;20054;-80
2023/06/14 09:59:21;;;;;;;4.40;3.45;;;;;;;24.65;57.37;100381.41;4955233;28;20047;-80
2023/06/14 10:01:50;;;;;;;5.57;3.92;;;;;;;24.67;57.54;100373.44;4955518;29;20051;-80
2023/06/14 10:04:22;;;;;;;4.32;3.58;;;;;;;24.56;55.58;100381.72;4955912;29;20051;-80
2023/06/14 10:06:52;;;;;;;3.25;2.90;;;;;;;24.56;55.77;100384.50;4960870;28;20050;-80
2023/06/14 10:09:22;;;;;;;4.38;3.72;;;;;;;24.58;57.18;100383.31;4974711;28;20050;-80
2023/06/14 10:11:50;;;;;;;5.75;3.70;;;;;;;24.53;57.35;100374.06;4973349;28;20047;-80
2023/06/14 10:14:19;;;;;;;4.32;3.83;;;;;;;24.81;56.99;100372.81;4974653;28;20062;-80
2023/06/14 10:17:04;;;;;;;4.30;3.80;;;;;;;24.93;54.83;100377.31;4973131;28;20540;-80
2023/06/14 10:19:54;;;;;;;3.70;3.10;;;;;;;25.04;55.59;100377.47;4974688;28;20401;-81
2023/06/14 10:22:36;;;;;;;3.40;3.10;;;;;;;25.07;55.55;100378.69;4971260;28;20047;-81
2023/06/14 10:25:31;;;;;;;6.28;3.90;;;;;;;25.08;56.16;100369.09;4956183;29;20053;-82
2023/06/14 10:28:19;;;;;;;8.27;3.53;;;;;;;24.82;57.20;100359.63;4939012;29;20059;-81
2023/06/14 10:31:09;;;;;;;4.60;3.55;;;;;;;25.16;57.06;100372.78;4955420;29;20043;-82
2023/06/14 10:33:53;;;;;;;4.53;3.95;;;;;;;25.18;54.90;100378.78;4955628;29;20043;-81
2023/06/14 10:36:34;;;;;;;6.00;3.55;;;;;;;25.22;56.27;100374.81;4955066;29;20406;-80
2023/06/14 10:39:17;;;;;;;6.03;3.33;;;;;;;25.26;54.83;100360.06;4954892;29;20043;-80
2023/06/14 10:41:55;;;;;;;4.28;3.33;;;;;;;25.47;53.81;100368.63;4955893;29;20058;-82
2023/06/14 10:44:24;;;;;;;6.40;3.78;;;;;;;25.50;52.67;100367.84;4953651;29;20062;-82
2023/06/14 10:46:58;;;;;;;5.88;3.75;;;;;;;25.50;53.51;100367.03;4954952;29;20047;-81
2023/06/14 10:49:48;;;;;;;5.22;3.40;;;;;;;25.46;52.76;100361.41;4953843;29;20054;-81
2023/06/14 10:52:18;;;;;;;8.15;3.35;;;;;;;25.17;51.73;100355.56;4954964;29;20039;-81
2023/06/14 10:55:09;;;;;;;3.35;3.05;;;;;;;25.44;52.32;100354.59;4955605;29;20062;-81
2023/06/14 10:57:45;;;;;;;3.95;2.88;;;;;;;25.44;50.00;100361.00;4954299;29;20039;-81
2023/06/14 11:00:25;;;;;;;7.40;2.90;;;;;;;25.65;46.73;100355.97;4955115;29;20047;-81
2023/06/14 11:03:15;;;;;;;2.70;2.38;;;;;;;25.69;46.40;100363.22;4954504;29;20043;-81
2023/06/14 11:05:47;;;;;;;4.57;3.35;;;;;;;25.99;48.30;100355.75;4954883;29;20063;-81
2023/06/14 11:08:27;;;;;;;2.97;2.63;;;;;;;25.99;45.69;100352.97;4954856;29;20058;-81
2023/06/14 11:11:00;;;;;;;2.60;2.30;;;;;;;25.75;42.91;100347.63;4954084;28;20051;-82
2023/06/14 11:13:28;;;;;;;6.93;2.70;;;;;;;25.86;45.34;100338.50;4953078;29;20062;-79
2023/06/14 11:15:59;;;;;;;2.92;2.72;;;;;;;26.00;45.56;100338.56;4956109;29;20055;-80
2023/06/14 11:18:28;;;;;;;4.20;2.95;;;;;;;26.09;45.64;100346.63;4944791;28;20065;-80
2023/06/14 11:21:00;;;;;;;3.17;2.55;;;;;;;26.10;45.54;100336.22;4941993;28;20058;-81
2023/06/14 11:23:30;;;;;;;3.38;2.78;;;;;;;26.22;45.89;100338.66;4942217;28;20043;-82
2023/06/14 11:25:59;;;;;;;3.17;2.38;;;;;;;26.59;43.01;100344.44;4941431;28;20044;-79
2023/06/14 11:28:44;;;;;;;3.65;2.88;;;;;;;26.39;42.02;100331.53;4922312;29;20043;-80
2023/06/14 11:31:13;;;;;;;3.30;3.00;;;;;;;26.64;43.67;100332.81;4947800;28;20040;-79
2023/06/14 11:33:41;;;;;;;4.03;2.53;;;;;;;26.46;43.65;100322.34;4942468;28;20777;-80
2023/06/14 11:36:10;;;;;;;4.68;2.75;;;;;;;26.51;43.38;100323.97;4936408;28;20059;-80
2023/06/14 11:38:39;;;;;;;3.08;2.22;;;;;;;26.35;42.62;100316.72;4941050;28;20058;-78
2023/06/14 11:41:07;;;;;;;3.28;2.83;;;;;;;26.24;43.68;100324.28;4949534;28;20050;-81